Time;durP1;ratioP1;P1;durP2;ratioP2;P2;SDS_P1;SDS_P2;PMS_P1;PMS_P2;Temp;Humidity;BMP_temperature;BMP_pressure;BME280_temperature;BME280_humidity;BME280_pressure;Samples;Min_cycle;Max_cycle;Signal;HPM_P1;HPM_P2
2022/10/13 00:01:36;;;;;;;23.90;9.07;;;;;;;-143.48;70.50;79229.94;5014929;28;20022;-74
2022/10/13 00:04:01;;;;;;;19.83;9.20;;;;;;;-143.48;70.60;79229.94;5014611;28;20109;-74
2022/10/13 00:06:27;;;;;;;17.55;9.00;;;;;;;-143.48;70.91;79231.94;5013295;28;20420;-74
2022/10/13 00:08:53;;;;;;;19.65;9.10;;;;;;;-143.48;71.26;79231.94;5014684;28;20010;-74
2022/10/13 00:11:24;;;;;;;24.30;9.50;;;;;;;-143.48;71.19;79222.00;5014411;28;20439;-74
2022/10/13 00:13:50;;;;;;;22.17;9.15;;;;;;;-143.48;71.17;79210.09;5014323;28;20060;-74
2022/10/13 00:16:19;;;;;;;21.70;9.55;;;;;;;-143.48;71.16;79220.03;4996799;28;20029;-74
2022/10/13 00:18:44;;;;;;;18.70;9.05;;;;;;;-143.48;71.35;79218.03;5014480;28;20113;-74
2022/10/13 00:21:13;;;;;;;16.77;8.85;;;;;;;-143.48;71.17;79198.19;5014039;28;20425;-74
2022/10/13 00:23:39;;;;;;;19.50;9.52;;;;;;;-143.48;70.63;79202.16;5012975;28;20036;-75
2022/10/13 00:26:06;;;;;;;21.67;9.38;;;;;;;-143.48;71.13;79214.06;5013028;28;20018;-75
2022/10/13 00:28:32;;;;;;;18.15;8.75;;;;;;;-143.48;71.88;79224.00;5013964;28;20101;-76
2022/10/13 00:30:58;;;;;;;19.80;9.05;;;;;;;-143.48;72.24;79222.00;5013811;28;20473;-73
2022/10/13 00:33:23;;;;;;;28.73;9.45;;;;;;;-143.48;71.93;79208.13;5014157;28;20101;-73
2022/10/13 00:35:49;;;;;;;20.65;9.30;;;;;;;-143.48;71.61;79200.19;5014079;28;20055;-75
2022/10/13 00:38:16;;;;;;;23.65;9.30;;;;;;;-143.48;72.19;79208.13;5013004;28;20033;-76
2022/10/13 00:40:53;;;;;;;19.67;9.90;;;;;;;-143.48;72.61;79204.16;5013980;28;20029;-75
2022/10/13 00:43:26;;;;;;;22.15;9.90;;;;;;;-143.48;72.34;79202.16;5014201;28;20022;-75
2022/10/13 00:45:52;;;;;;;20.67;9.48;;;;;;;-143.48;72.40;79196.22;5013878;28;20054;-75
2022/10/13 00:48:26;;;;;;;23.92;9.60;;;;;;;-143.48;72.62;79206.13;5014507;28;20026;-74
2022/10/13 00:50:52;;;;;;;18.73;9.13;;;;;;;-143.48;72.68;79186.31;5016724;28;20029;-75
2022/10/13 00:53:22;;;;;;;18.20;9.68;;;;;;;-143.48;72.61;79186.31;5013681;28;20025;-75
2022/10/13 00:55:49;;;;;;;22.50;9.80;;;;;;;-143.48;72.64;79180.34;5013803;28;20036;-74
2022/10/13 00:58:18;;;;;;;19.33;9.25;;;;;;;-143.48;73.04;79198.19;5013739;28;20081;-75
2022/10/13 01:00:47;;;;;;;19.58;9.45;;;;;;;-143.48;73.20;79186.31;4996130;28;20366;-74
2022/10/13 01:03:12;;;;;;;20.10;10.18;;;;;;;-143.48;72.44;79172.41;5012566;28;20449;-75
2022/10/13 01:05:40;;;;;;;18.65;10.43;;;;;;;-143.48;72.96;79184.31;5013841;28;20050;-74
2022/10/13 01:08:06;;;;;;;19.38;10.23;;;;;;;-143.48;73.03;79180.34;5013528;28;20029;-74
2022/10/13 01:10:55;;;;;;;16.50;9.57;;;;;;;-143.48;73.32;79170.44;5013587;28;20030;-74
2022/10/13 01:13:56;;;;;;;26.45;10.00;;;;;;;-143.48;73.22;79178.38;5012296;28;20030;-74
2022/10/13 01:16:35;;;;;;;21.20;10.00;;;;;;;-143.48;73.30;79182.34;4995749;28;20064;-74
2022/10/13 01:19:28;;;;;;;22.45;9.93;;;;;;;-143.48;73.15;79172.41;5013393;28;20184;-74
2022/10/13 01:22:07;;;;;;;27.70;10.68;;;;;;;-143.48;73.19;79166.47;5013499;28;20029;-74
2022/10/13 01:24:54;;;;;;;19.27;10.02;;;;;;;-143.48;73.65;79154.56;5013613;28;20025;-74
2022/10/13 01:27:26;;;;;;;22.52;9.82;;;;;;;-143.48;73.23;79150.59;4995721;28;20472;-74
2022/10/13 01:30:04;;;;;;;18.98;9.90;;;;;;;-143.48;73.00;79136.72;5013374;28;20028;-74
2022/10/13 01:32:42;;;;;;;22.30;9.63;;;;;;;-143.48;73.38;79142.66;5012893;28;20060;-73
2022/10/13 01:35:46;;;;;;;20.10;10.07;;;;;;;-143.48;73.77;79142.66;5011871;28;20064;-74
2022/10/13 01:38:48;;;;;;;19.83;10.32;;;;;;;-143.48;73.79;79130.75;5011403;28;20030;-74
2022/10/13 01:41:18;;;;;;;24.80;9.65;;;;;;;-143.48;74.48;79136.72;4997170;28;20496;-74
2022/10/13 01:44:11;;;;;;;19.73;10.02;;;;;;;-143.48;74.45;79126.78;5017200;28;20053;-74
2022/10/13 01:46:38;;;;;;;20.77;10.32;;;;;;;-143.48;74.70;79126.78;4999620;28;20398;-74
2022/10/13 01:49:09;;;;;;;16.55;10.05;;;;;;;-143.48;74.64;79106.97;5017283;28;20029;-74
2022/10/13 01:51:35;;;;;;;19.90;9.95;;;;;;;-143.48;74.59;79093.06;5015957;28;20067;-74
2022/10/13 01:54:01;;;;;;;28.15;10.20;;;;;;;-143.48;74.35;79085.13;5017000;28;20026;-74
2022/10/13 01:56:26;;;;;;;19.85;10.27;;;;;;;-143.48;74.64;79085.13;5017098;28;20018;-75
2022/10/13 01:58:53;;;;;;;22.38;9.70;;;;;;;-143.48;74.83;79071.25;5017037;28;20113;-74
2022/10/13 02:01:35;;;;;;;23.95;10.13;;;;;;;-143.48;74.48;79047.44;5016607;28;20395;-74
2022/10/13 02:04:15;;;;;;;16.95;9.50;;;;;;;-143.48;74.13;79043.47;5017281;28;20029;-74
2022/10/13 02:06:49;;;;;;;20.70;9.90;;;;;;;-143.48;73.65;79033.56;5016980;28;20033;-74
2022/10/13 02:09:24;;;;;;;19.92;9.55;;;;;;;-143.48;74.09;79031.59;5016856;28;20076;-73
2022/10/13 02:12:01;;;;;;;20.90;9.85;;;;;;;-143.48;73.66;79043.47;5016683;28;20072;-74
2022/10/13 02:14:31;;;;;;;22.13;9.95;;;;;;;-143.48;74.59;79049.44;5016721;28;20029;-74
2022/10/13 02:17:00;;;;;;;23.58;10.30;;;;;;;-143.48;75.64;79055.38;5016611;28;20030;-74
2022/10/13 02:19:27;;;;;;;18.55;10.75;;;;;;;-143.48;75.39;79057.38;5016550;28;20378;-74
2022/10/13 02:21:53;;;;;;;17.85;10.27;;;;;;;-143.48;76.20;79059.34;5016674;28;20036;-74
2022/10/13 02:24:18;;;;;;;23.23;10.25;;;;;;;-143.48;76.35;79059.34;4998902;28;20068;-75
2022/10/13 02:26:44;;;;;;;20.55;10.55;;;;;;;-143.48;76.80;79065.31;5016437;28;20054;-74
2022/10/13 02:29:12;;;;;;;19.67;11.13;;;;;;;-143.48;76.96;79063.31;5016450;28;20026;-75
2022/10/13 02:31:37;;;;;;;19.52;10.68;;;;;;;-143.48;77.14;79067.28;5016369;28;20029;-74
2022/10/13 02:34:04;;;;;;;20.73;10.52;;;;;;;-143.48;77.92;79071.25;5016299;28;20076;-74
2022/10/13 02:36:29;;;;;;;24.30;11.13;;;;;;;-143.48;78.02;79067.28;5016464;28;20030;-74
2022/10/13 02:38:54;;;;;;;23.33;10.98;;;;;;;-143.48;77.96;79043.47;5016189;28;20430;-74
2022/10/13 02:41:20;;;;;;;20.15;10.98;;;;;;;-143.48;78.25;79027.63;5014825;28;20045;-74
2022/10/13 02:43:45;;;;;;;22.70;11.27;;;;;;;-143.48;78.16;79025.63;4998453;28;20095;-74
2022/10/13 02:46:10;;;;;;;20.55;10.88;;;;;;;-143.48;78.43;79015.72;5015953;28;20512;-74
2022/10/13 02:48:35;;;;;;;25.92;11.15;;;;;;;-143.48;78.83;79023.66;5016081;28;20067;-74
2022/10/13 02:51:01;;;;;;;25.13;10.63;;;;;;;-143.48;80.01;79015.72;5016167;28;20029;-74
2022/10/13 02:53:26;;;;;;;19.95;10.80;;;;;;;-143.48;80.45;79039.53;5015073;28;20041;-74
2022/10/13 02:55:51;;;;;;;29.88;12.27;;;;;;;-143.48;81.34;79047.44;5015793;28;20113;-74
2022/10/13 02:58:17;;;;;;;22.20;11.07;;;;;;;-143.48;81.58;79051.41;5015764;28;20022;-74
2022/10/13 03:00:42;;;;;;;26.48;12.60;;;;;;;-143.48;82.20;79033.56;5015755;28;20159;-74
2022/10/13 03:03:09;;;;;;;25.00;11.93;;;;;;;-143.48;82.25;79041.50;5015754;28;20025;-74
2022/10/13 03:05:35;;;;;;;27.23;11.95;;;;;;;-143.48;82.38;79043.47;5015703;28;20481;-74
2022/10/13 03:08:00;;;;;;;22.88;11.75;;;;;;;-143.48;82.14;79049.44;5015628;28;20084;-74
2022/10/13 03:10:25;;;;;;;23.10;11.45;;;;;;;-143.48;82.15;79063.31;5015612;28;20025;-74
2022/10/13 03:12:51;;;;;;;23.48;11.98;;;;;;;-143.48;82.72;79051.41;5015626;28;20026;-74
2022/10/13 03:15:16;;;;;;;22.95;11.45;;;;;;;-143.48;82.56;79039.53;5015477;28;20053;-74
2022/10/13 03:17:41;;;;;;;26.48;11.90;;;;;;;-143.48;82.31;79039.53;5015320;28;20033;-74
2022/10/13 03:20:07;;;;;;;25.58;11.77;;;;;;;-143.48;82.22;79047.44;5015700;28;20428;-75
2022/10/13 03:22:33;;;;;;;24.60;11.85;;;;;;;-143.48;82.37;79039.53;5015361;28;20032;-74
2022/10/13 03:24:58;;;;;;;22.48;11.25;;;;;;;-143.48;82.17;79045.47;4997743;28;20022;-74
2022/10/13 03:27:24;;;;;;;25.52;11.93;;;;;;;-143.48;83.56;79059.34;5015271;28;20034;-74
2022/10/13 03:29:49;;;;;;;25.27;12.32;;;;;;;-143.48;83.14;79045.47;5015214;28;20492;-74
2022/10/13 03:32:15;;;;;;;25.25;12.60;;;;;;;-143.48;82.69;79045.47;5015234;28;20499;-74
2022/10/13 03:34:40;;;;;;;23.80;11.82;;;;;;;-143.48;82.67;79043.47;5015255;28;20030;-74
2022/10/13 03:37:06;;;;;;;23.42;11.98;;;;;;;-143.48;82.69;79047.44;5015083;28;20113;-74
2022/10/13 03:39:31;;;;;;;27.65;12.48;;;;;;;-143.48;83.30;79023.66;5015033;28;20501;-74
2022/10/13 03:41:56;;;;;;;28.05;12.57;;;;;;;-143.48;82.54;79021.66;4997371;28;20041;-74
2022/10/13 03:44:22;;;;;;;20.65;12.30;;;;;;;-143.48;82.94;79039.53;5014801;28;20044;-74
2022/10/13 03:46:47;;;;;;;20.77;11.88;;;;;;;-143.48;83.29;79027.63;5014919;28;20034;-74
2022/10/13 03:49:12;;;;;;;25.02;12.40;;;;;;;-143.48;83.40;79027.63;4997245;28;20536;-74
2022/10/13 03:51:38;;;;;;;23.63;11.02;;;;;;;-143.48;83.39;79025.63;5014707;28;20547;-74
2022/10/13 03:54:03;;;;;;;24.73;11.68;;;;;;;-143.48;83.49;79027.63;5013434;28;20197;-74
2022/10/13 03:56:28;;;;;;;22.80;12.07;;;;;;;-143.48;83.98;79021.66;5014770;28;20488;-74
2022/10/13 03:58:55;;;;;;;22.23;11.57;;;;;;;-143.48;84.01;79027.63;4996934;28;20153;-74
2022/10/13 04:01:23;;;;;;;24.80;11.80;;;;;;;-143.48;84.34;79031.59;5014754;28;20030;-74
2022/10/13 04:03:50;;;;;;;25.02;11.90;;;;;;;-143.48;84.56;79029.59;5013903;28;20389;-74
2022/10/13 04:06:16;;;;;;;24.88;12.82;;;;;;;-143.48;84.24;79015.72;5013075;28;20120;-74
2022/10/13 04:08:42;;;;;;;21.48;11.85;;;;;;;-143.48;84.22;79029.59;4996950;28;20088;-74
2022/10/13 04:11:10;;;;;;;27.48;11.93;;;;;;;-143.48;84.29;79015.72;5013196;28;20464;-74
2022/10/13 04:13:36;;;;;;;19.35;10.63;;;;;;;-143.48;84.31;79009.75;5014414;28;20064;-74
2022/10/13 04:16:06;;;;;;;21.58;11.43;;;;;;;-143.48;84.02;78995.88;5014505;28;20022;-74
2022/10/13 04:18:32;;;;;;;23.13;11.55;;;;;;;-143.48;84.09;78991.91;4996584;28;20040;-74
2022/10/13 04:20:58;;;;;;;20.83;11.23;;;;;;;-143.48;84.37;78989.94;5014384;28;20172;-74
2022/10/13 04:23:23;;;;;;;21.02;11.55;;;;;;;-143.48;84.53;78972.06;5014279;28;20021;-74
2022/10/13 04:25:48;;;;;;;23.35;11.40;;;;;;;-143.48;84.21;78972.06;4996861;28;20057;-74
2022/10/13 04:28:14;;;;;;;27.20;11.32;;;;;;;-143.48;84.09;78978.03;5014085;28;20113;-74
2022/10/13 04:30:40;;;;;;;24.27;11.13;;;;;;;-143.48;83.65;78976.03;4996559;28;20128;-74
2022/10/13 04:33:06;;;;;;;20.85;11.02;;;;;;;-143.48;83.79;78983.97;5012949;28;20034;-74
2022/10/13 04:35:31;;;;;;;21.77;11.18;;;;;;;-143.48;84.58;78980.00;5012752;28;20067;-74
2022/10/13 04:37:57;;;;;;;21.30;11.10;;;;;;;-143.48;84.31;78980.00;5012807;28;20108;-74
2022/10/13 04:40:23;;;;;;;22.85;11.63;;;;;;;-143.48;84.26;78983.97;5013859;28;20021;-74
2022/10/13 04:42:49;;;;;;;24.52;11.18;;;;;;;-143.48;84.40;78987.94;5013883;28;20033;-74
2022/10/13 04:45:14;;;;;;;22.80;11.55;;;;;;;-143.48;84.34;78982.00;5013845;28;20045;-74
2022/10/13 04:47:40;;;;;;;24.90;11.90;;;;;;;-143.48;84.57;78982.00;5013842;28;20033;-74
2022/10/13 04:50:05;;;;;;;19.92;10.65;;;;;;;-143.48;84.92;78985.97;5014215;28;20033;-75
2022/10/13 04:52:31;;;;;;;20.98;11.57;;;;;;;-143.48;85.28;78987.94;5013876;28;20469;-75
2022/10/13 04:54:56;;;;;;;24.38;11.38;;;;;;;-143.48;85.59;78980.00;5013884;28;20053;-74
2022/10/13 04:57:21;;;;;;;23.50;11.20;;;;;;;-143.48;85.05;78976.03;5013916;28;20025;-74
2022/10/13 04:59:47;;;;;;;24.70;11.45;;;;;;;-143.48;85.05;78980.00;5024123;28;20081;-75
2022/10/13 05:02:12;;;;;;;23.90;11.25;;;;;;;-143.48;85.17;78970.09;5018598;28;20393;-75
2022/10/13 05:04:38;;;;;;;23.50;11.25;;;;;;;-143.48;84.77;78968.09;5014411;28;20049;-74
2022/10/13 05:07:03;;;;;;;24.60;10.95;;;;;;;-143.48;85.14;78970.09;5014197;28;20101;-75
2022/10/13 05:09:29;;;;;;;26.60;12.07;;;;;;;-143.48;85.23;78974.06;5013865;28;20018;-75
2022/10/13 05:11:54;;;;;;;25.55;11.32;;;;;;;-143.48;86.04;78970.09;5014166;28;20033;-74
2022/10/13 05:14:20;;;;;;;28.77;11.88;;;;;;;-143.48;85.31;78964.16;4996360;28;20385;-74
2022/10/13 05:16:46;;;;;;;22.92;11.27;;;;;;;-143.48;85.62;78944.31;5013790;28;20025;-74
2022/10/13 05:19:11;;;;;;;28.80;11.55;;;;;;;-143.48;85.50;78944.31;5014044;28;20037;-75
2022/10/13 05:21:37;;;;;;;23.23;10.80;;;;;;;-143.48;85.39;78936.38;4996849;28;20026;-74
2022/10/13 05:24:05;;;;;;;23.75;11.25;;;;;;;-143.48;85.19;78934.38;5013974;28;20100;-74
2022/10/13 05:26:33;;;;;;;23.98;11.18;;;;;;;-143.48;85.27;78938.34;5016833;28;20029;-74
2022/10/13 05:29:00;;;;;;;24.85;11.57;;;;;;;-143.48;85.39;78936.38;5017455;28;20029;-74
2022/10/13 05:31:27;;;;;;;22.98;11.80;;;;;;;-143.48;85.54;78936.38;5018145;28;20040;-74
2022/10/13 05:33:54;;;;;;;23.25;11.23;;;;;;;-143.48;85.65;78954.22;5020753;28;20037;-74
2022/10/13 05:36:21;;;;;;;20.50;10.98;;;;;;;-143.48;85.65;78948.28;5001154;28;20489;-75
2022/10/13 05:38:52;;;;;;;25.80;11.75;;;;;;;-143.48;85.69;78944.31;5018296;28;20029;-74
2022/10/13 05:41:18;;;;;;;18.48;11.10;;;;;;;-143.48;86.17;78936.38;5017863;28;20037;-74
2022/10/13 05:43:43;;;;;;;26.27;11.50;;;;;;;-143.48;86.46;78952.25;5018700;28;20026;-74
2022/10/13 05:46:09;;;;;;;26.30;11.45;;;;;;;-143.48;86.52;78952.25;5017647;28;20053;-74
2022/10/13 05:48:35;;;;;;;20.45;11.55;;;;;;;-143.48;86.81;78952.25;5020769;28;20037;-74
2022/10/13 05:51:04;;;;;;;27.98;12.55;;;;;;;-143.48;87.31;78964.16;5018673;28;20029;-75
2022/10/13 05:53:35;;;;;;;25.80;12.88;;;;;;;-143.48;87.49;78944.31;5018436;28;20033;-74
2022/10/13 05:56:06;;;;;;;30.45;12.52;;;;;;;-143.48;87.69;78944.31;5019124;28;20033;-75
2022/10/13 05:58:36;;;;;;;29.40;12.38;;;;;;;-143.48;87.59;78928.44;5019045;28;20026;-74
2022/10/13 06:01:05;;;;;;;24.30;11.70;;;;;;;-143.48;87.37;78932.41;5019748;28;20026;-75
2022/10/13 06:03:31;;;;;;;20.88;11.82;;;;;;;-143.48;87.58;78934.38;5019863;28;20022;-75
2022/10/13 06:05:56;;;;;;;27.13;11.52;;;;;;;-143.48;87.57;78926.47;5020799;28;20020;-74
2022/10/13 06:08:21;;;;;;;20.77;11.55;;;;;;;-143.48;87.65;78936.38;5013380;28;20022;-75
2022/10/13 06:10:47;;;;;;;24.13;11.32;;;;;;;-143.48;87.71;78928.44;5012454;28;20056;-74
2022/10/13 06:13:12;;;;;;;23.50;12.10;;;;;;;-143.48;87.75;78928.44;5029848;28;20028;-76
2022/10/13 06:15:37;;;;;;;24.77;11.95;;;;;;;-143.48;88.04;78940.34;5030345;28;20045;-75
2022/10/13 06:18:07;;;;;;;29.60;12.93;;;;;;;-143.48;88.70;78926.47;5013886;28;20048;-75
2022/10/13 06:20:33;;;;;;;27.80;12.05;;;;;;;-143.48;88.28;78926.47;5031419;28;20025;-75
2022/10/13 06:22:58;;;;;;;27.08;12.27;;;;;;;-143.48;88.07;78910.59;5013594;28;20089;-75
2022/10/13 06:25:23;;;;;;;25.83;11.82;;;;;;;-143.48;88.03;78904.63;5030151;28;20030;-75
2022/10/13 06:27:49;;;;;;;21.70;11.82;;;;;;;-143.48;87.97;78904.63;5021359;28;20072;-74
2022/10/13 06:30:14;;;;;;;28.52;13.48;;;;;;;-143.48;88.30;78896.69;5002836;28;20057;-74
2022/10/13 06:32:39;;;;;;;26.23;12.52;;;;;;;-143.48;87.65;78908.59;5019794;28;20544;-75
2022/10/13 06:35:05;;;;;;;20.90;11.55;;;;;;;-143.48;88.02;78892.75;5019048;28;20492;-75
2022/10/13 06:37:30;;;;;;;28.80;11.80;;;;;;;-143.48;87.76;78892.75;5022978;28;20029;-75
2022/10/13 06:39:56;;;;;;;26.25;12.10;;;;;;;-143.48;87.57;78908.59;5001989;28;20018;-76
2022/10/13 06:42:21;;;;;;;21.00;11.05;;;;;;;-143.48;87.52;78910.59;5001291;28;20489;-73
2022/10/13 06:44:46;;;;;;;21.25;11.77;;;;;;;-143.48;87.65;78914.56;5018193;28;20054;-73
2022/10/13 06:47:12;;;;;;;25.13;12.02;;;;;;;-143.48;88.05;78916.53;5018281;28;20107;-73
2022/10/13 06:49:37;;;;;;;28.75;12.65;;;;;;;-143.48;88.07;78926.47;4999713;28;20057;-74
2022/10/13 06:52:03;;;;;;;27.75;12.32;;;;;;;-143.48;88.67;78932.41;5015678;28;20357;-75
2022/10/13 06:54:29;;;;;;;28.23;12.23;;;;;;;-143.48;88.79;78922.50;5016533;28;20625;-74
2022/10/13 06:56:54;;;;;;;27.13;12.55;;;;;;;-143.48;88.56;78924.47;5016527;28;20082;-74
2022/10/13 06:59:20;;;;;;;25.73;12.40;;;;;;;-143.48;88.77;78920.50;5014839;28;20057;-74
2022/10/13 07:01:46;;;;;;;29.17;12.68;;;;;;;-143.48;88.67;78916.53;5014989;28;20036;-74
2022/10/13 07:04:12;;;;;;;27.25;12.23;;;;;;;-143.48;88.58;78932.41;4997814;28;20029;-74
2022/10/13 07:06:37;;;;;;;28.70;12.18;;;;;;;-143.48;88.85;78920.50;5015811;28;20029;-74
2022/10/13 07:09:07;;;;;;;37.13;12.85;;;;;;;-143.48;88.92;78922.50;5015602;28;20025;-74
2022/10/13 07:11:32;;;;;;;31.60;13.48;;;;;;;-143.48;88.91;78914.56;5015852;28;20029;-74
2022/10/13 07:13:58;;;;;;;33.08;14.20;;;;;;;-143.48;89.01;78912.56;5015576;28;20021;-74
2022/10/13 07:16:23;;;;;;;28.73;12.75;;;;;;;-143.48;88.86;78908.59;5015777;28;20052;-74
2022/10/13 07:18:48;;;;;;;26.73;12.82;;;;;;;-143.48;88.88;78896.69;5015648;28;20457;-74
2022/10/13 07:21:14;;;;;;;25.33;12.48;;;;;;;-143.48;88.71;78888.78;5015480;28;20022;-74
2022/10/13 07:23:39;;;;;;;30.98;13.25;;;;;;;-143.48;88.60;78894.72;5015709;28;20424;-75
2022/10/13 07:26:10;;;;;;;28.48;14.43;;;;;;;-143.48;88.64;78894.72;5015480;28;20022;-75
2022/10/13 07:28:36;;;;;;;31.13;13.80;;;;;;;-143.48;88.67;78886.78;5015364;28;20068;-75
2022/10/13 07:31:10;;;;;;;27.15;13.75;;;;;;;-143.48;88.66;78859.03;5015191;28;20385;-75
2022/10/13 07:33:37;;;;;;;30.65;15.40;;;;;;;-143.48;88.46;78861.00;5015268;28;20124;-75
2022/10/13 07:36:03;;;;;;;32.60;14.13;;;;;;;-143.48;88.20;78843.16;5015326;28;20049;-74
2022/10/13 07:38:28;;;;;;;27.10;14.27;;;;;;;-143.48;87.90;78853.06;5015014;28;20025;-74
2022/10/13 07:40:53;;;;;;;27.50;14.43;;;;;;;-143.48;87.99;78853.06;4997632;28;20021;-74
2022/10/13 07:43:19;;;;;;;36.25;16.30;;;;;;;-143.48;88.40;78833.22;4997460;28;20495;-74
2022/10/13 07:45:45;;;;;;;32.97;15.82;;;;;;;-143.48;87.99;78815.38;5014929;28;20168;-74
2022/10/13 07:48:10;;;;;;;33.38;15.48;;;;;;;-143.48;87.24;78793.56;5014874;28;20076;-74
2022/10/13 07:50:36;;;;;;;32.25;15.18;;;;;;;-143.48;86.87;78799.50;5014609;28;20029;-75
2022/10/13 07:53:01;;;;;;;33.10;15.13;;;;;;;-143.48;87.03;78785.63;4997067;28;20053;-75
2022/10/13 07:55:26;;;;;;;28.90;15.30;;;;;;;-143.48;86.48;78787.63;5018681;28;20056;-74
2022/10/13 07:57:52;;;;;;;28.77;14.98;;;;;;;-143.48;87.07;78799.50;5018689;28;20022;-76
2022/10/13 08:00:18;;;;;;;40.30;16.23;;;;;;;-143.48;87.18;78789.59;5018821;28;20030;-74
2022/10/13 08:02:43;;;;;;;28.20;15.20;;;;;;;-143.48;87.12;78785.63;5003159;28;20044;-76
2022/10/13 08:05:08;;;;;;;31.05;16.05;;;;;;;-143.48;86.66;78765.78;4999401;28;20116;-74
2022/10/13 08:07:35;;;;;;;28.00;16.60;;;;;;;-143.48;86.63;78773.72;5015008;28;20127;-76
2022/10/13 08:10:00;;;;;;;30.38;16.33;;;;;;;-143.48;86.69;78783.66;5014787;28;20368;-74
2022/10/13 08:12:26;;;;;;;29.30;16.58;;;;;;;-143.48;86.74;78767.78;5014907;28;20025;-74
2022/10/13 08:14:51;;;;;;;32.22;16.42;;;;;;;-143.48;86.60;78767.78;5014891;28;20477;-74
2022/10/13 08:17:17;;;;;;;32.22;16.80;;;;;;;-143.48;86.28;78767.78;5014528;28;20032;-73
2022/10/13 08:19:42;;;;;;;30.85;17.15;;;;;;;-143.48;85.88;78761.84;5014651;28;20022;-73
2022/10/13 08:22:09;;;;;;;34.30;17.02;;;;;;;-143.48;87.04;78755.88;5014350;28;20075;-74
2022/10/13 08:24:34;;;;;;;32.72;17.50;;;;;;;-143.48;86.83;78759.84;5014954;28;20072;-74
2022/10/13 08:26:59;;;;;;;27.70;16.27;;;;;;;-143.48;86.48;78751.91;5014067;28;20018;-74
2022/10/13 08:29:25;;;;;;;39.60;18.33;;;;;;;-143.48;86.45;78732.09;5012940;28;20489;-74
2022/10/13 08:31:52;;;;;;;32.38;16.58;;;;;;;-143.48;85.56;78714.22;5013131;28;20018;-74
2022/10/13 08:34:18;;;;;;;31.83;17.05;;;;;;;-143.48;85.31;78718.19;5014534;28;20079;-73
2022/10/13 08:36:43;;;;;;;31.92;16.80;;;;;;;-143.48;85.15;78724.16;5014137;28;20030;-73
2022/10/13 08:39:09;;;;;;;39.85;17.15;;;;;;;-143.48;86.12;78722.16;5014683;28;20018;-73
2022/10/13 08:41:42;;;;;;;30.85;16.60;;;;;;;-143.48;85.50;78694.41;5014557;28;20033;-74
2022/10/13 08:44:34;;;;;;;30.88;16.38;;;;;;;-143.48;85.15;78704.31;5012655;28;20076;-74
2022/10/13 08:47:09;;;;;;;29.15;15.40;;;;;;;-143.48;85.41;78694.41;5013756;28;20029;-73
2022/10/13 08:49:34;;;;;;;31.20;15.63;;;;;;;-143.48;84.98;78690.44;5013305;28;20516;-75
2022/10/13 08:52:04;;;;;;;29.98;16.38;;;;;;;-143.48;84.40;78668.59;5013349;28;20018;-74
2022/10/13 08:54:29;;;;;;;30.50;14.88;;;;;;;-143.48;83.40;78646.78;5012403;28;20033;-74
2022/10/13 08:56:55;;;;;;;25.65;15.48;;;;;;;-143.48;82.52;78630.94;4996299;28;20018;-73
2022/10/13 08:59:20;;;;;;;37.45;15.13;;;;;;;-143.48;82.58;78634.91;4996042;28;20032;-73
2022/10/13 09:01:48;;;;;;;32.08;15.05;;;;;;;-143.48;82.75;78640.84;5013889;28;20060;-74
2022/10/13 09:04:39;;;;;;;32.38;15.55;;;;;;;-143.48;83.23;78634.91;5012339;28;20037;-73
2022/10/13 09:07:08;;;;;;;28.60;14.55;;;;;;;-143.48;83.38;78640.84;5013423;28;20036;-73
2022/10/13 09:09:33;;;;;;;27.95;14.20;;;;;;;-143.48;83.28;78658.69;4996345;28;20025;-74
2022/10/13 09:11:59;;;;;;;25.15;14.70;;;;;;;-143.48;84.37;78678.53;5013619;28;20030;-73
2022/10/13 09:14:26;;;;;;;29.45;15.25;;;;;;;-143.48;84.77;78664.66;5013602;28;20101;-75
2022/10/13 09:16:53;;;;;;;27.25;14.90;;;;;;;-143.48;84.61;78658.69;5013452;28;20026;-74
2022/10/13 09:19:22;;;;;;;27.40;14.60;;;;;;;-143.48;84.42;78654.72;4995874;28;20477;-75
2022/10/13 09:21:50;;;;;;;24.25;14.40;;;;;;;-143.48;83.88;78660.69;4995846;28;20549;-75
2022/10/13 09:24:18;;;;;;;24.50;14.63;;;;;;;-143.48;83.52;78652.75;5013496;28;20073;-74
2022/10/13 09:26:45;;;;;;;29.35;14.95;;;;;;;-143.48;83.45;78670.59;5012954;28;20026;-75
2022/10/13 09:29:23;;;;;;;29.92;14.90;;;;;;;-143.48;83.83;78676.53;5011808;28;20018;-76
2022/10/13 09:31:50;;;;;;;27.85;15.50;;;;;;;-143.48;84.31;78680.50;5012087;28;20026;-74
2022/10/13 09:34:18;;;;;;;30.73;17.27;;;;;;;-143.48;84.32;78676.53;4995803;28;20037;-75
2022/10/13 09:37:03;;;;;;;30.70;17.13;;;;;;;-143.48;84.23;78670.59;5013328;28;20054;-74
2022/10/13 09:39:30;;;;;;;26.90;17.23;;;;;;;-143.48;83.79;78678.53;5013288;28;20148;-74
2022/10/13 09:42:30;;;;;;;27.58;17.00;;;;;;;-143.48;84.16;78680.50;5013273;28;20026;-74
2022/10/13 09:45:17;;;;;;;28.27;16.83;;;;;;;-143.48;83.55;78680.50;4973579;28;20050;-74
2022/10/13 09:47:56;;;;;;;25.15;16.38;;;;;;;-143.48;84.31;78694.41;5013413;28;20053;-75
2022/10/13 09:50:26;;;;;;;25.75;16.63;;;;;;;-143.48;84.20;78702.31;5012058;28;20028;-74
2022/10/13 09:52:52;;;;;;;27.20;16.60;;;;;;;-143.48;84.47;78700.34;4995518;28;20065;-75
2022/10/13 09:55:35;;;;;;;25.90;16.05;;;;;;;-143.48;84.31;78716.22;5013651;28;20473;-75
2022/10/13 09:58:23;;;;;;;28.55;16.98;;;;;;;-143.48;84.68;78704.31;5018219;28;20525;-75
2022/10/13 10:00:51;;;;;;;24.00;14.95;;;;;;;-143.48;83.41;78674.56;5021735;28;20033;-76
2022/10/13 10:03:32;;;;;;;27.77;16.10;;;;;;;-143.48;83.54;78670.59;5027264;28;20029;-77
2022/10/13 10:06:04;;;;;;;21.02;14.20;;;;;;;-143.48;82.89;78664.66;5024359;28;20026;-75
2022/10/13 10:08:40;;;;;;;27.88;14.80;;;;;;;-143.48;82.60;78630.94;5015533;28;20034;-76
2022/10/13 10:11:12;;;;;;;28.30;14.82;;;;;;;-143.48;80.89;78611.09;5017009;28;20056;-75
2022/10/13 10:13:37;;;;;;;24.03;14.47;;;;;;;-143.48;80.97;78591.25;5017063;28;20021;-75
2022/10/13 10:16:20;;;;;;;26.38;14.30;;;;;;;-143.48;79.53;78593.25;5021656;28;20028;-75
2022/10/13 10:18:54;;;;;;;20.95;14.15;;;;;;;-143.48;79.41;78593.25;5028269;28;20056;-75
2022/10/13 10:21:28;;;;;;;22.85;14.35;;;;;;;-143.48;79.61;78581.34;5024711;28;20033;-75
2022/10/13 10:24:20;;;;;;;25.50;13.95;;;;;;;-143.48;78.61;78575.41;5027025;28;20034;-75
2022/10/13 10:26:59;;;;;;;22.60;14.25;;;;;;;-143.48;79.35;78535.72;5014116;28;20034;-74
2022/10/13 10:29:42;;;;;;;22.48;13.27;;;;;;;-143.48;77.67;78529.78;4998977;28;20026;-75
2022/10/13 10:32:30;;;;;;;22.02;13.32;;;;;;;-143.48;76.85;78498.03;5016351;28;20061;-74
2022/10/13 10:35:17;;;;;;;20.58;11.73;;;;;;;-143.48;75.83;78527.78;5016516;28;20087;-75
2022/10/13 10:38:00;;;;;;;23.85;12.05;;;;;;;-143.48;76.15;78525.81;5016252;28;20072;-75
2022/10/13 10:40:38;;;;;;;21.95;12.43;;;;;;;-143.48;75.51;78500.03;5016309;28;20084;-75
2022/10/13 10:43:42;;;;;;;23.23;12.23;;;;;;;-143.48;75.70;78502.00;4999395;28;20466;-75
2022/10/13 10:46:15;;;;;;;;;;;;;;;-143.48;75.43;78541.69;5002698;28;20081;-75
2022/10/13 10:48:43;;;;;;;20.65;12.07;;;;;;;-143.48;76.91;78537.72;5016639;28;19909;-76
2022/10/13 10:51:10;;;;;;;22.25;11.80;;;;;;;-143.48;76.44;78527.78;5013939;28;20021;-75
2022/10/13 10:54:02;;;;;;;20.38;11.45;;;;;;;-143.48;75.38;78531.75;5014478;28;20025;-75
2022/10/13 10:56:37;;;;;;;25.45;12.23;;;;;;;-143.48;76.43;78529.78;5015799;28;20541;-75
2022/10/13 10:59:35;;;;;;;26.25;12.20;;;;;;;-143.48;74.57;78482.19;5014317;28;20056;-75
2022/10/13 11:02:06;;;;;;;25.25;12.63;;;;;;;-143.48;75.00;78464.34;4997487;28;20026;-75
2022/10/13 11:04:37;;;;;;;31.20;11.32;;;;;;;-143.48;73.39;78410.78;5015448;28;20026;-74
2022/10/13 11:07:04;;;;;;;21.80;11.93;;;;;;;-143.48;73.05;78400.88;5015600;28;20030;-76
2022/10/13 11:09:41;;;;;;;23.13;11.27;;;;;;;-143.48;72.27;78418.72;5016068;28;20018;-75
2022/10/13 11:12:19;;;;;;;20.52;11.48;;;;;;;-143.48;72.73;78438.53;5016725;28;20075;-76